Time;durP1;ratioP1;P1;durP2;ratioP2;P2;SDS_P1;SDS_P2;PMS_P1;PMS_P2;Temp;Humidity;BMP_temperature;BMP_pressure;BME280_temperature;BME280_humidity;BME280_pressure;Samples;Min_cycle;Max_cycle;Signal;HPM_P1;HPM_P2
2023/08/23 00:01:15;;;;;;;10.60;1.90;;;;;;;18.72;63.71;100392.84;1681134;85;21066;-61
2023/08/23 00:03:47;;;;;;;8.05;1.70;;;;;;;18.72;63.80;100392.30;1651598;87;21524;-61
2023/08/23 00:06:16;;;;;;;6.62;1.70;;;;;;;18.71;63.84;100395.33;1681285;85;21066;-60
2023/08/23 00:08:45;;;;;;;4.03;1.52;;;;;;;18.67;63.91;100411.64;1681448;85;21047;-61
2023/08/23 00:11:14;;;;;;;4.00;1.80;;;;;;;18.62;64.13;100392.13;1652299;86;21063;-61
2023/08/23 00:13:43;;;;;;;3.50;1.50;;;;;;;18.60;64.31;100382.63;1681139;85;21471;-61
2023/08/23 00:16:12;;;;;;;5.45;1.70;;;;;;;18.58;64.52;100401.47;1681394;85;21031;-60
2023/08/23 00:18:42;;;;;;;3.95;1.80;;;;;;;18.57;64.70;100401.72;1652404;87;21052;-60
2023/08/23 00:21:11;;;;;;;3.67;1.72;;;;;;;18.57;64.75;100401.72;1681221;85;21122;-61
2023/08/23 00:23:40;;;;;;;4.10;2.17;;;;;;;18.54;64.85;100407.22;1681251;85;21067;-61
2023/08/23 00:26:14;;;;;;;8.30;2.10;;;;;;;18.54;64.94;100411.92;1652267;87;21099;-61
2023/08/23 00:28:41;;;;;;;4.10;2.00;;;;;;;18.53;64.99;100409.70;1680977;85;21047;-61
2023/08/23 00:31:11;;;;;;;5.87;2.80;;;;;;;18.50;65.17;100411.58;1681188;85;21114;-61
2023/08/23 00:33:41;;;;;;;8.88;2.77;;;;;;;18.48;65.15;100412.38;1654570;86;21527;-61
2023/08/23 00:36:10;;;;;;;7.12;3.10;;;;;;;18.49;64.89;100421.00;1687180;84;21041;-61
2023/08/23 00:38:40;;;;;;;6.60;3.10;;;;;;;18.50;64.62;100421.30;1721574;82;21026;-61
2023/08/23 00:41:09;;;;;;;6.00;2.85;;;;;;;18.52;64.47;100419.66;1686884;85;21107;-61
2023/08/23 00:43:38;;;;;;;7.33;3.30;;;;;;;18.54;64.26;100425.80;1687277;83;21098;-61
2023/08/23 00:46:08;;;;;;;7.35;3.40;;;;;;;18.56;64.18;100423.08;1721438;83;21054;-61
2023/08/23 00:48:37;;;;;;;6.55;2.83;;;;;;;18.59;64.04;100425.89;1721503;82;21051;-61
2023/08/23 00:51:08;;;;;;;10.05;3.10;;;;;;;18.59;63.98;100414.25;1687070;83;21116;-61
2023/08/23 00:53:37;;;;;;;7.05;3.17;;;;;;;18.55;64.15;100394.19;1721477;83;21495;-61
2023/08/23 00:56:07;;;;;;;7.65;3.08;;;;;;;18.49;64.49;100395.19;1716081;83;21110;-61
2023/08/23 00:58:37;;;;;;;9.53;3.02;;;;;;;18.39;64.97;100395.84;1721880;83;21466;-60
2023/08/23 01:01:06;;;;;;;6.03;3.15;;;;;;;18.36;65.27;100396.34;1721625;83;21074;-62
2023/08/23 01:03:36;;;;;;;8.00;3.10;;;;;;;18.32;65.43;100389.61;1687114;85;21026;-60
2023/08/23 01:06:31;;;;;;;8.45;3.27;;;;;;;18.30;65.56;100384.86;1687033;84;21065;-61
2023/08/23 01:09:43;;;;;;;6.12;2.75;;;;;;;18.26;65.72;100391.45;1687079;85;21018;-60
2023/08/23 01:12:36;;;;;;;7.72;3.47;;;;;;;18.19;66.01;100384.34;1687148;84;21022;-61
2023/08/23 01:15:11;;;;;;;6.58;3.95;;;;;;;18.13;66.30;100386.17;1721480;82;21057;-60
2023/08/23 01:17:43;;;;;;;8.55;4.15;;;;;;;18.11;66.37;100388.89;1687027;85;21041;-60
2023/08/23 01:20:13;;;;;;;6.62;3.67;;;;;;;18.12;66.27;100394.19;1687292;83;21041;-59
2023/08/23 01:22:53;;;;;;;6.42;3.40;;;;;;;18.13;66.36;100393.09;1686967;85;21045;-62
2023/08/23 01:25:22;;;;;;;6.65;3.37;;;;;;;18.07;66.42;100389.93;1721505;83;21026;-60
2023/08/23 01:27:52;;;;;;;8.98;3.60;;;;;;;18.01;66.66;100383.45;1687243;85;21054;-61
2023/08/23 01:30:23;;;;;;;7.78;3.42;;;;;;;17.99;66.75;100380.63;1721575;83;20999;-61
2023/08/23 01:33:02;;;;;;;6.40;3.20;;;;;;;18.01;66.78;100386.22;1721601;82;21042;-60
2023/08/23 01:35:37;;;;;;;6.30;3.20;;;;;;;18.04;66.92;100378.80;1721222;83;21011;-60
2023/08/23 01:38:06;;;;;;;6.15;3.00;;;;;;;18.05;67.06;100384.63;1721846;83;21018;-60
2023/08/23 01:40:36;;;;;;;7.10;2.90;;;;;;;18.06;67.18;100383.55;1687349;85;21026;-61
2023/08/23 01:43:05;;;;;;;8.90;2.58;;;;;;;18.06;67.28;100386.86;1721728;83;21070;-60
2023/08/23 01:45:34;;;;;;;4.75;2.45;;;;;;;18.02;67.41;100387.05;1721684;82;21034;-60
2023/08/23 01:48:05;;;;;;;7.05;2.75;;;;;;;17.97;67.62;100386.95;1686901;85;21054;-61
2023/08/23 01:50:34;;;;;;;8.85;3.00;;;;;;;17.98;67.89;100380.33;1687149;84;21042;-61
2023/08/23 01:53:04;;;;;;;4.85;2.72;;;;;;;18.00;67.90;100372.60;1721544;83;21121;-61
2023/08/23 01:55:33;;;;;;;8.75;3.95;;;;;;;18.06;67.90;100378.55;1721603;82;21070;-61
2023/08/23 01:58:04;;;;;;;12.15;4.30;;;;;;;18.10;67.70;100381.66;1721526;83;21456;-61
2023/08/23 02:00:33;;;;;;;8.75;4.05;;;;;;;18.13;67.35;100375.08;1721653;83;21484;-61
2023/08/23 02:03:05;;;;;;;10.30;4.08;;;;;;;18.17;66.88;100376.27;1686961;85;21442;-61
2023/08/23 02:05:34;;;;;;;7.90;4.10;;;;;;;18.19;66.57;100370.47;1686959;85;21108;-61
2023/08/23 02:08:03;;;;;;;7.37;3.83;;;;;;;18.22;66.17;100397.19;1687075;85;21005;-60
2023/08/23 02:10:34;;;;;;;7.28;4.05;;;;;;;18.24;66.02;100387.23;1721690;83;21058;-61
2023/08/23 02:13:05;;;;;;;8.58;4.47;;;;;;;18.26;66.01;100385.06;1687181;85;21070;-61
2023/08/23 02:15:34;;;;;;;7.85;3.80;;;;;;;18.28;65.98;100385.65;1687144;83;21558;-61
2023/08/23 02:18:05;;;;;;;7.95;3.50;;;;;;;18.29;65.95;100392.87;1681400;84;21049;-61
2023/08/23 02:20:35;;;;;;;7.70;3.80;;;;;;;18.31;66.17;100386.53;1721500;83;21032;-61
2023/08/23 02:23:04;;;;;;;12.40;4.25;;;;;;;18.35;66.15;100394.66;1721491;82;21050;-61
2023/08/23 02:25:33;;;;;;;8.40;4.30;;;;;;;18.34;66.12;100390.20;1721819;83;21047;-61
2023/08/23 02:28:04;;;;;;;10.45;4.47;;;;;;;18.35;65.85;100389.11;1687053;85;21188;-62
2023/08/23 02:30:33;;;;;;;11.90;5.25;;;;;;;18.34;65.62;100395.20;1693448;83;21007;-61
2023/08/23 02:33:03;;;;;;;11.12;4.40;;;;;;;18.35;65.51;100380.79;1686980;83;21078;-61
2023/08/23 02:35:33;;;;;;;12.70;5.05;;;;;;;18.35;65.43;100386.34;1721346;83;21166;-60
2023/08/23 02:38:02;;;;;;;9.15;4.80;;;;;;;18.35;65.33;100389.11;1682691;85;21074;-61
2023/08/23 02:40:31;;;;;;;9.03;4.35;;;;;;;18.36;65.26;100388.86;1687164;83;21041;-61
2023/08/23 02:43:02;;;;;;;11.38;4.30;;;;;;;18.39;65.29;100373.65;1687165;85;21089;-62
2023/08/23 02:45:33;;;;;;;14.07;4.78;;;;;;;18.38;65.58;100372.80;1687154;83;21042;-62
2023/08/23 02:48:03;;;;;;;11.85;4.78;;;;;;;18.37;65.89;100366.13;1721417;83;21070;-61
2023/08/23 02:50:33;;;;;;;8.55;4.37;;;;;;;18.34;65.85;100363.84;1715952;83;21042;-60
2023/08/23 02:53:02;;;;;;;12.78;4.62;;;;;;;18.31;65.63;100371.28;1687141;83;21046;-60
2023/08/23 02:55:36;;;;;;;11.43;4.90;;;;;;;18.29;65.66;100385.95;1687206;85;21045;-60
2023/08/23 02:58:06;;;;;;;10.80;4.72;;;;;;;18.29;65.72;100399.81;1639518;85;21021;-61
2023/08/23 03:00:36;;;;;;;12.10;4.87;;;;;;;18.25;65.83;100411.11;1686965;83;21050;-60
2023/08/23 03:03:06;;;;;;;9.80;5.03;;;;;;;18.19;66.12;100417.61;1721667;83;21030;-60
2023/08/23 03:05:35;;;;;;;15.10;4.47;;;;;;;18.16;66.41;100400.08;1721479;83;21495;-61
2023/08/23 03:08:04;;;;;;;12.10;4.35;;;;;;;18.15;66.61;100385.92;1721613;83;21070;-60
2023/08/23 03:10:34;;;;;;;12.25;4.05;;;;;;;18.15;66.66;100395.08;1721652;82;21042;-61
2023/08/23 03:13:04;;;;;;;10.53;4.58;;;;;;;18.14;66.69;100416.97;1721627;83;20994;-59
2023/08/23 03:15:34;;;;;;;9.00;4.17;;;;;;;18.13;66.62;100430.54;1721583;82;21030;-60
2023/08/23 03:18:04;;;;;;;9.33;4.12;;;;;;;18.14;66.43;100417.52;1686907;84;21065;-60
2023/08/23 03:20:34;;;;;;;11.63;4.53;;;;;;;18.14;66.28;100424.45;1687060;83;21070;-62
2023/08/23 03:23:05;;;;;;;11.75;4.58;;;;;;;18.16;66.17;100416.72;1721667;83;21045;-60
2023/08/23 03:25:35;;;;;;;9.90;4.45;;;;;;;18.18;66.09;100400.68;1687049;83;21065;-60
2023/08/23 03:28:04;;;;;;;10.03;4.47;;;;;;;18.18;66.03;100404.84;1687123;83;21081;-61
2023/08/23 03:30:33;;;;;;;12.07;4.78;;;;;;;18.15;65.89;100410.88;1721474;82;21057;-61
2023/08/23 03:33:03;;;;;;;9.55;4.58;;;;;;;18.13;65.68;100413.06;1686992;83;21013;-60
2023/08/23 03:35:33;;;;;;;10.95;4.75;;;;;;;18.09;65.49;100414.09;1703227;82;21083;-60
2023/08/23 03:38:03;;;;;;;13.68;5.17;;;;;;;18.03;65.47;100423.40;1661143;85;21109;-61
2023/08/23 03:40:39;;;;;;;11.78;5.00;;;;;;;18.01;65.61;100421.42;1704531;84;21070;-61
2023/08/23 03:43:09;;;;;;;10.13;4.83;;;;;;;18.00;65.59;100419.19;1704883;84;21509;-60
2023/08/23 03:45:48;;;;;;;10.85;4.58;;;;;;;18.01;65.72;100411.17;1704846;83;21058;-60
2023/08/23 03:48:23;;;;;;;13.58;5.33;;;;;;;18.00;66.00;100415.03;1677819;84;21090;-60
2023/08/23 03:50:52;;;;;;;12.70;4.67;;;;;;;17.97;66.41;100404.44;1704450;84;21065;-60
2023/08/23 03:53:23;;;;;;;11.15;4.50;;;;;;;17.96;66.71;100411.06;1661276;86;21081;-64
2023/08/23 03:55:54;;;;;;;11.33;4.55;;;;;;;17.95;66.85;100408.00;1704424;83;21495;-62
2023/08/23 03:58:24;;;;;;;12.68;4.40;;;;;;;17.99;66.63;100411.96;1704445;84;21599;-61
2023/08/23 04:00:53;;;;;;;9.80;4.08;;;;;;;18.01;66.26;100406.17;1704419;84;21051;-60
2023/08/23 04:03:24;;;;;;;11.22;4.30;;;;;;;18.06;65.95;100422.91;1704586;84;21070;-61
2023/08/23 04:05:53;;;;;;;13.20;4.22;;;;;;;18.09;65.88;100418.25;1704309;84;21067;-60
2023/08/23 04:08:22;;;;;;;10.60;4.15;;;;;;;18.14;65.60;100425.84;1704377;84;21495;-61
2023/08/23 04:10:52;;;;;;;8.40;4.08;;;;;;;18.17;65.54;100422.56;1661032;86;21065;-60
2023/08/23 04:13:23;;;;;;;8.45;4.05;;;;;;;18.20;65.49;100430.39;1704601;84;21059;-61
2023/08/23 04:15:52;;;;;;;7.83;3.77;;;;;;;18.25;65.39;100431.91;1660875;86;21097;-61
2023/08/23 04:18:21;;;;;;;8.63;3.70;;;;;;;18.30;65.31;100423.69;1704751;83;21455;-60
2023/08/23 04:21:00;;;;;;;8.95;3.60;;;;;;;18.36;65.27;100413.83;1704644;84;20999;-61
2023/08/23 04:23:30;;;;;;;7.67;3.30;;;;;;;18.41;65.48;100406.14;1704326;84;21116;-61
2023/08/23 04:25:59;;;;;;;8.10;3.55;;;;;;;18.47;65.50;100398.21;1664498;85;21081;-61
2023/08/23 04:28:29;;;;;;;9.45;3.55;;;;;;;18.50;65.15;100396.87;1704677;84;21090;-60
2023/08/23 04:31:02;;;;;;;10.35;4.17;;;;;;;18.55;64.64;100404.73;1661196;85;21057;-60
2023/08/23 04:33:35;;;;;;;6.42;2.42;;;;;;;18.65;63.86;100398.56;1704550;83;21404;-61
2023/08/23 04:36:06;;;;;;;6.00;2.42;;;;;;;18.77;63.07;100399.87;1679095;85;21408;-60
2023/08/23 04:38:34;;;;;;;7.05;2.67;;;;;;;18.87;62.43;100402.30;1652636;87;21120;-60
2023/08/23 04:41:04;;;;;;;7.17;3.40;;;;;;;18.97;61.47;100412.19;1681488;85;21141;-61
2023/08/23 04:43:35;;;;;;;8.78;2.92;;;;;;;19.06;61.07;100407.05;1682810;85;21456;-61
2023/08/23 04:46:07;;;;;;;8.70;2.50;;;;;;;19.14;60.54;100399.68;1652428;86;21088;-60
2023/08/23 04:48:36;;;;;;;4.40;2.55;;;;;;;19.24;59.98;100404.00;1631674;87;21051;-60
2023/08/23 04:51:09;;;;;;;7.53;2.58;;;;;;;19.31;59.56;100414.39;1681243;85;21494;-60
2023/08/23 04:53:38;;;;;;;5.65;2.40;;;;;;;19.39;59.14;100402.55;1632358;87;21527;-60
2023/08/23 04:56:08;;;;;;;6.08;2.67;;;;;;;19.47;58.79;100396.55;1681278;85;21075;-61
2023/08/23 04:58:38;;;;;;;5.33;2.37;;;;;;;19.56;58.71;100405.64;1681422;85;21059;-60
2023/08/23 05:01:08;;;;;;;4.55;2.50;;;;;;;19.63;58.12;100409.07;1652399;87;21039;-61
2023/08/23 05:03:39;;;;;;;7.95;2.60;;;;;;;19.69;57.65;100413.31;1681498;84;21058;-60
2023/08/23 05:06:09;;;;;;;5.08;2.40;;;;;;;19.74;57.53;100418.94;1652431;87;21527;-60
2023/08/23 05:08:39;;;;;;;9.13;3.20;;;;;;;19.78;57.64;100425.12;1681289;85;21110;-61
2023/08/23 05:11:14;;;;;;;4.37;2.00;;;;;;;19.83;57.51;100423.79;1652472;87;21052;-61
2023/08/23 05:13:43;;;;;;;9.50;3.08;;;;;;;19.91;57.11;100415.55;1681430;85;21075;-61
2023/08/23 05:16:13;;;;;;;4.97;2.62;;;;;;;19.97;56.89;100414.52;1652417;87;21080;-61
2023/08/23 05:18:43;;;;;;;4.60;2.20;;;;;;;20.03;56.39;100408.46;1681401;85;21070;-61
2023/08/23 05:21:34;;;;;;;7.92;2.50;;;;;;;20.08;56.45;100412.14;1652222;87;21594;-60
2023/08/23 05:24:04;;;;;;;7.67;2.45;;;;;;;20.12;56.26;100418.86;1690664;85;21527;-61
2023/08/23 05:26:34;;;;;;;5.20;2.40;;;;;;;20.18;56.11;100416.46;1653874;85;21081;-61
2023/08/23 05:29:03;;;;;;;7.47;2.70;;;;;;;20.22;55.56;100417.63;1675831;86;21076;-61
2023/08/23 05:31:34;;;;;;;5.28;2.20;;;;;;;20.27;55.30;100425.19;1675613;85;21088;-61
2023/08/23 05:34:03;;;;;;;5.70;2.47;;;;;;;20.34;55.30;100424.44;1675607;86;21144;-60
2023/08/23 05:36:33;;;;;;;5.22;2.42;;;;;;;20.40;54.86;100425.36;1675549;86;21126;-61
2023/08/23 05:39:03;;;;;;;6.33;2.20;;;;;;;20.46;54.67;100415.41;1675714;86;21100;-61
2023/08/23 05:41:32;;;;;;;4.70;2.08;;;;;;;20.56;54.42;100417.45;1647838;86;21140;-61
2023/08/23 05:44:02;;;;;;;7.37;2.50;;;;;;;20.63;54.01;100416.69;1675517;85;21215;-61
2023/08/23 05:46:31;;;;;;;4.08;1.67;;;;;;;20.69;53.78;100410.06;1675715;86;21072;-62
2023/08/23 05:49:01;;;;;;;4.30;1.87;;;;;;;20.78;53.64;100405.69;1647340;86;21084;-61
2023/08/23 05:51:32;;;;;;;3.80;1.60;;;;;;;20.88;53.36;100411.94;1647357;86;21559;-61
2023/08/23 05:54:03;;;;;;;7.10;2.22;;;;;;;20.99;53.10;100408.67;1646882;86;21076;-61
2023/08/23 05:56:32;;;;;;;3.90;1.75;;;;;;;21.07;52.71;100412.36;1675721;86;21127;-60
2023/08/23 05:59:01;;;;;;;4.12;2.15;;;;;;;21.16;52.67;100409.37;1647403;86;21469;-62
2023/08/23 06:01:31;;;;;;;4.50;1.60;;;;;;;21.29;52.29;100405.31;1675611;85;21243;-60
2023/08/23 06:04:00;;;;;;;9.95;2.90;;;;;;;21.39;52.02;100409.55;1675708;85;21072;-60
2023/08/23 06:06:30;;;;;;;17.37;2.72;;;;;;;21.48;51.58;100407.97;1675795;86;21072;-62
2023/08/23 06:09:02;;;;;;;7.92;3.05;;;;;;;21.58;51.53;100415.56;1675631;85;21542;-61
2023/08/23 06:11:32;;;;;;;8.63;2.35;;;;;;;21.67;51.21;100410.59;1675898;85;21120;-60
2023/08/23 06:14:24;;;;;;;6.72;2.30;;;;;;;21.74;51.04;100412.58;1675706;86;21148;-61
2023/08/23 06:16:51;;;;;;;4.45;2.10;;;;;;;21.81;50.79;100414.56;1651415;86;21828;-60
2023/08/23 06:19:21;;;;;;;5.20;1.95;;;;;;;21.93;50.22;100412.94;1675571;86;21072;-59
2023/08/23 06:21:50;;;;;;;4.92;2.10;;;;;;;22.02;49.99;100402.09;1675544;84;21202;-60
2023/08/23 06:24:20;;;;;;;6.20;2.20;;;;;;;22.11;49.72;100404.70;1675749;85;21083;-60
2023/08/23 06:26:50;;;;;;;5.83;1.50;;;;;;;22.17;49.57;100401.38;1675770;86;21105;-61
2023/08/23 06:29:20;;;;;;;3.37;1.92;;;;;;;22.23;49.46;100409.48;1669401;85;21116;-62
2023/08/23 06:31:50;;;;;;;4.80;1.98;;;;;;;22.27;49.44;100406.98;1675675;85;21099;-61
2023/08/23 06:34:21;;;;;;;4.87;1.80;;;;;;;22.29;49.17;100407.55;1675526;86;21214;-61
2023/08/23 06:36:51;;;;;;;5.55;1.77;;;;;;;22.31;48.85;100410.34;1675636;86;21038;-63
2023/08/23 06:39:20;;;;;;;7.65;2.95;;;;;;;22.28;48.64;100404.47;1675618;86;21499;-60
2023/08/23 06:41:53;;;;;;;5.40;2.10;;;;;;;22.31;48.76;100405.32;1673325;86;21116;-60
2023/08/23 06:44:22;;;;;;;9.35;2.92;;;;;;;22.32;49.09;100400.86;1675577;85;21108;-62
2023/08/23 06:46:52;;;;;;;4.28;1.80;;;;;;;22.31;48.46;100400.58;1675724;86;21115;-62
2023/08/23 06:49:21;;;;;;;4.12;1.50;;;;;;;22.29;48.20;100407.55;1669483;85;21088;-62
2023/08/23 06:51:51;;;;;;;3.72;1.67;;;;;;;22.28;47.94;100396.09;1675702;85;21084;-61
2023/08/23 06:54:21;;;;;;;7.12;1.82;;;;;;;22.30;48.10;100401.69;1675727;86;21088;-61
2023/08/23 06:56:49;;;;;;;6.15;1.80;;;;;;;22.37;48.17;100399.47;1675698;85;21124;-62
2023/08/23 06:59:20;;;;;;;2.72;1.50;;;;;;;22.50;47.52;100400.89;1675587;85;21591;-63
2023/08/23 07:01:49;;;;;;;6.87;1.80;;;;;;;22.71;46.90;100394.77;1675795;86;21076;-61
2023/08/23 07:04:19;;;;;;;10.45;2.50;;;;;;;23.04;46.46;100396.23;1675605;86;21508;-61
2023/08/23 07:06:48;;;;;;;6.08;2.00;;;;;;;23.50;46.02;100394.23;1675698;85;21127;-61
2023/08/23 07:09:17;;;;;;;6.47;2.83;;;;;;;23.97;45.04;100399.42;1675685;85;21236;-61
2023/08/23 07:11:47;;;;;;;4.15;1.85;;;;;;;24.38;43.74;100397.86;1675755;85;21092;-61
2023/08/23 07:14:16;;;;;;;3.60;1.57;;;;;;;24.83;42.68;100394.50;1675797;86;21080;-59
2023/08/23 07:16:45;;;;;;;3.98;1.52;;;;;;;25.30;41.08;100393.81;1675571;86;21587;-61
2023/08/23 07:19:14;;;;;;;3.87;1.45;;;;;;;25.69;40.54;100390.09;1675764;86;21072;-60
2023/08/23 07:21:44;;;;;;;5.12;1.60;;;;;;;26.09;39.51;100396.64;1675525;86;21052;-60
2023/08/23 07:24:13;;;;;;;7.70;2.25;;;;;;;26.41;38.56;100388.91;1680310;85;21135;-62
2023/08/23 07:26:44;;;;;;;3.98;1.62;;;;;;;26.67;37.59;100385.17;1680745;85;21079;-61
2023/08/23 07:29:15;;;;;;;2.65;1.45;;;;;;;26.88;37.33;100387.66;1680699;85;21274;-61
2023/08/23 07:31:45;;;;;;;3.30;1.30;;;;;;;27.10;37.02;100395.73;1680819;85;21148;-62
2023/08/23 07:34:16;;;;;;;4.70;1.80;;;;;;;27.32;36.25;100383.00;1680548;85;21056;-60
2023/08/23 07:36:45;;;;;;;3.30;1.60;;;;;;;27.51;36.25;100381.52;1680865;85;21108;-61
2023/08/23 07:39:15;;;;;;;4.50;1.62;;;;;;;27.73;35.84;100385.89;1680716;85;21076;-61
2023/08/23 07:41:45;;;;;;;4.40;2.00;;;;;;;27.86;35.43;100391.26;1680660;85;21116;-61
2023/08/23 07:44:14;;;;;;;4.85;1.92;;;;;;;27.94;35.36;100393.34;1680873;85;21103;-61
2023/08/23 07:46:43;;;;;;;5.00;1.85;;;;;;;28.10;34.76;100390.48;1681030;85;21460;-60
2023/08/23 07:49:14;;;;;;;4.90;2.33;;;;;;;28.21;34.63;100393.92;1680693;85;21151;-60
2023/08/23 07:51:44;;;;;;;4.60;1.55;;;;;;;28.22;34.66;100396.42;1680602;85;21079;-62
2023/08/23 07:54:14;;;;;;;4.92;1.60;;;;;;;28.25;34.52;100391.59;1654023;85;21127;-61
2023/08/23 07:56:43;;;;;;;4.20;1.72;;;;;;;28.28;34.80;100385.33;1680654;85;21079;-60
2023/08/23 07:59:13;;;;;;;4.40;2.00;;;;;;;28.45;34.83;100383.25;1680802;85;21146;-61
2023/08/23 08:01:43;;;;;;;4.78;1.80;;;;;;;28.70;34.46;100391.70;1680636;85;21675;-62
2023/08/23 08:04:13;;;;;;;7.97;2.10;;;;;;;28.90;33.86;100396.87;1680710;85;21076;-63
2023/08/23 08:06:43;;;;;;;4.67;2.10;;;;;;;28.93;33.55;100396.23;1680640;85;21099;-60
2023/08/23 08:09:13;;;;;;;4.58;2.17;;;;;;;28.96;33.84;100392.77;1680635;85;21084;-59
2023/08/23 08:11:43;;;;;;;7.83;2.30;;;;;;;28.98;34.31;100386.81;1595543;89;21236;-61
2023/08/23 08:14:13;;;;;;;4.58;1.82;;;;;;;28.87;34.43;100390.47;1612800;88;21076;-64
2023/08/23 08:16:44;;;;;;;5.05;2.15;;;;;;;28.62;34.35;100386.25;1593083;89;21175;-61
2023/08/23 08:19:13;;;;;;;5.72;2.00;;;;;;;28.41;34.58;100379.39;1599854;89;21534;-65
2023/08/23 08:21:44;;;;;;;5.55;2.40;;;;;;;28.31;34.20;100383.28;1595633;90;21106;-65
2023/08/23 08:24:14;;;;;;;6.92;2.33;;;;;;;28.23;34.31;100382.62;1600068;89;21156;-77
2023/08/23 08:26:43;;;;;;;7.30;2.50;;;;;;;28.14;35.63;100390.12;1600160;90;21647;-78
2023/08/23 08:29:12;;;;;;;4.95;2.30;;;;;;;28.09;35.50;100386.84;1600154;90;21136;-79
2023/08/23 08:31:41;;;;;;;4.62;2.37;;;;;;;28.18;36.09;100384.11;1606181;89;21091;-75
2023/08/23 08:34:10;;;;;;;4.40;2.30;;;;;;;28.03;35.85;100387.27;1610754;89;21160;-68
2023/08/23 08:36:40;;;;;;;4.35;1.60;;;;;;;28.04;35.83;100382.72;1664593;85;21072;-66
2023/08/23 08:39:09;;;;;;;5.25;1.70;;;;;;;28.08;34.85;100392.78;1695157;85;21527;-65
2023/08/23 08:41:41;;;;;;;2.95;1.67;;;;;;;28.01;34.97;100382.52;1695357;85;21061;-66
2023/08/23 08:44:12;;;;;;;3.62;1.65;;;;;;;28.08;34.79;100387.16;1694977;85;21552;-70
2023/08/23 08:46:41;;;;;;;4.05;1.40;;;;;;;28.22;34.30;100382.91;1695164;85;21088;-67
2023/08/23 08:49:11;;;;;;;4.55;1.80;;;;;;;28.49;33.49;100380.05;1696488;84;21054;-67
2023/08/23 08:51:41;;;;;;;5.53;1.47;;;;;;;28.70;32.61;100383.25;1685599;84;21083;-67
2023/08/23 08:54:11;;;;;;;3.83;1.40;;;;;;;28.61;32.96;100378.95;1711687;84;21427;-68
2023/08/23 08:56:40;;;;;;;3.45;2.00;;;;;;;28.49;33.54;100373.00;1703843;84;21144;-65
2023/08/23 08:59:10;;;;;;;6.65;1.85;;;;;;;28.48;33.21;100379.80;1653451;85;21088;-66
2023/08/23 09:01:39;;;;;;;4.25;1.42;;;;;;;28.41;32.72;100375.17;1680495;85;21542;-66
2023/08/23 09:04:08;;;;;;;5.53;1.80;;;;;;;28.23;33.12;100369.94;1631592;85;21967;-66
2023/08/23 09:06:37;;;;;;;4.20;1.80;;;;;;;28.04;33.39;100374.27;1707116;84;21097;-65
2023/08/23 09:09:07;;;;;;;3.33;1.40;;;;;;;27.90;33.86;100370.60;1712055;84;21502;-67
2023/08/23 09:11:36;;;;;;;3.95;1.72;;;;;;;27.81;34.35;100363.20;1712013;84;21761;-65
2023/08/23 09:14:19;;;;;;;7.42;2.22;;;;;;;27.79;34.49;100363.52;1712083;84;21074;-64
2023/08/23 09:16:49;;;;;;;4.10;2.00;;;;;;;27.75;34.50;100363.88;1712308;84;21481;-65
2023/08/23 09:19:19;;;;;;;5.22;1.65;;;;;;;27.72;34.49;100370.14;1711950;84;21474;-66
2023/08/23 09:21:51;;;;;;;3.83;1.67;;;;;;;27.62;34.59;100371.75;1710567;84;21030;-64
2023/08/23 09:24:20;;;;;;;2.50;1.47;;;;;;;27.17;34.97;100379.86;1712177;84;21516;-67
2023/08/23 09:26:49;;;;;;;3.98;1.77;;;;;;;27.17;34.97;100379.86;1712385;84;21081;-66
2023/08/23 09:29:19;;;;;;;3.58;1.70;;;;;;;27.01;35.50;100382.69;1712695;84;21086;-66
2023/08/23 09:31:48;;;;;;;17.85;3.30;;;;;;;26.92;35.42;100382.52;1688170;84;21046;-65
2023/08/23 09:34:18;;;;;;;8.08;2.25;;;;;;;26.78;35.71;100375.44;1712492;84;21110;-65
2023/08/23 09:36:47;;;;;;;9.45;2.15;;;;;;;26.74;36.10;100376.35;1712648;84;21061;-66
2023/08/23 09:39:18;;;;;;;3.55;1.57;;;;;;;26.77;35.88;100369.55;1712592;84;21054;-67
2023/08/23 09:41:47;;;;;;;5.97;1.50;;;;;;;26.77;35.66;100358.87;1712442;84;21101;-65
2023/08/23 09:44:20;;;;;;;4.72;1.80;;;;;;;26.74;35.80;100355.27;1710496;84;21117;-66
2023/08/23 09:46:49;;;;;;;6.60;1.92;;;;;;;26.70;35.54;100366.29;1712498;84;21110;-66
2023/08/23 09:49:18;;;;;;;3.98;1.70;;;;;;;26.64;35.24;100364.67;1712520;84;21070;-65
2023/08/23 09:51:48;;;;;;;3.12;1.45;;;;;;;26.56;35.59;100370.15;1712376;84;21030;-66
2023/08/23 09:54:34;;;;;;;5.00;1.65;;;;;;;26.58;35.44;100379.95;1712524;84;21094;-65
2023/08/23 09:57:07;;;;;;;3.65;1.47;;;;;;;26.57;35.39;100369.84;1693356;84;21108;-63
2023/08/23 09:59:38;;;;;;;1.87;1.37;;;;;;;26.59;35.84;100370.38;1683398;85;21166;-67
2023/08/23 10:02:06;;;;;;;5.15;1.85;;;;;;;26.68;35.17;100370.55;1683097;85;21121;-66
2023/08/23 10:04:38;;;;;;;6.83;1.98;;;;;;;26.62;35.04;100362.73;1683592;85;21072;-66
2023/08/23 10:07:08;;;;;;;3.25;1.67;;;;;;;26.56;35.26;100365.36;1683450;85;21072;-64
2023/08/23 10:09:37;;;;;;;5.75;1.60;;;;;;;26.54;35.13;100362.86;1683139;85;21112;-64
2023/08/23 10:12:08;;;;;;;3.10;1.40;;;;;;;26.55;34.92;100356.67;1683281;85;21071;-65
2023/08/23 10:14:49;;;;;;;3.60;1.42;;;;;;;26.62;34.85;100354.30;1658283;85;21167;-66
2023/08/23 10:17:19;;;;;;;4.67;1.70;;;;;;;26.61;34.94;100354.04;1683097;85;21486;-65
2023/08/23 10:19:49;;;;;;;3.08;1.30;;;;;;;26.64;34.80;100346.41;1658078;85;21540;-66
2023/08/23 10:22:19;;;;;;;5.00;1.52;;;;;;;26.64;34.88;100346.41;1683215;85;21092;-64
2023/08/23 10:24:50;;;;;;;3.33;1.47;;;;;;;26.61;34.99;100347.59;1700660;83;21075;-63
2023/08/23 10:27:20;;;;;;;2.80;1.20;;;;;;;26.64;35.10;100345.57;1656005;85;21499;-64
2023/08/23 10:29:50;;;;;;;4.05;2.02;;;;;;;26.72;35.21;100351.36;1656701;85;21056;-65
2023/08/23 10:32:20;;;;;;;3.10;1.70;;;;;;;26.81;34.59;100345.30;1656329;85;21095;-65
2023/08/23 10:34:49;;;;;;;6.87;1.62;;;;;;;26.78;34.46;100327.64;1656456;85;21399;-65
2023/08/23 10:37:23;;;;;;;6.85;1.85;;;;;;;26.75;34.42;100325.45;1685050;85;21553;-66
2023/08/23 10:40:01;;;;;;;5.83;1.70;;;;;;;26.70;34.83;100333.97;1684901;85;21114;-64
2023/08/23 10:42:31;;;;;;;4.87;1.40;;;;;;;26.67;34.34;100332.34;1685045;85;21019;-65
2023/08/23 10:45:04;;;;;;;5.75;1.60;;;;;;;26.62;34.54;100328.17;1685015;85;21047;-65
2023/08/23 10:47:36;;;;;;;4.42;1.60;;;;;;;26.60;34.63;100328.48;1657520;85;21074;-63
2023/08/23 10:50:07;;;;;;;2.95;1.40;;;;;;;26.59;34.82;100324.57;1656290;85;21119;-65
2023/08/23 10:52:37;;;;;;;3.98;1.42;;;;;;;26.60;34.61;100324.27;1656473;85;21055;-61
2023/08/23 10:55:08;;;;;;;3.95;1.57;;;;;;;26.59;34.63;100318.37;1685062;85;21047;-64
2023/08/23 10:57:36;;;;;;;5.92;1.70;;;;;;;26.60;34.64;100317.81;1672473;85;21188;-64
2023/08/23 11:00:07;;;;;;;4.45;1.70;;;;;;;26.59;34.59;100318.37;1668140;86;21533;-65
2023/08/23 11:02:37;;;;;;;8.90;2.00;;;;;;;26.52;35.22;100308.94;1668377;86;21123;-63
2023/08/23 11:05:08;;;;;;;3.02;1.80;;;;;;;26.57;35.58;100305.77;1638908;86;21096;-64
2023/08/23 11:07:37;;;;;;;2.70;1.42;;;;;;;26.62;35.04;100298.09;1668200;86;21129;-64
2023/08/23 11:10:09;;;;;;;5.78;1.87;;;;;;;26.64;34.78;100293.00;1668037;86;21203;-67
2023/08/23 11:12:38;;;;;;;4.97;1.70;;;;;;;26.65;34.50;100303.09;1668249;86;21072;-67
2023/08/23 11:15:09;;;;;;;3.02;1.40;;;;;;;26.66;34.22;100298.31;1668284;86;21496;-62
2023/08/23 11:17:38;;;;;;;12.03;2.95;;;;;;;26.67;34.36;100292.41;1668397;86;21097;-63
2023/08/23 11:20:10;;;;;;;4.80;1.35;;;;;;;26.69;34.41;100302.78;1637891;86;21573;-66
2023/08/23 11:22:40;;;;;;;4.33;1.42;;;;;;;26.71;34.52;100296.28;1645800;85;21504;-63
2023/08/23 11:25:09;;;;;;;5.70;1.85;;;;;;;26.78;34.49;100291.66;1684962;85;21059;-64
2023/08/23 11:27:39;;;;;;;6.65;1.85;;;;;;;26.88;34.34;100292.05;1685037;85;21479;-65
2023/08/23 11:30:10;;;;;;;4.15;1.77;;;;;;;26.91;34.62;100292.27;1655940;85;21083;-67
2023/08/23 11:32:39;;;;;;;3.67;1.87;;;;;;;26.92;34.04;100291.70;1685011;84;21046;-62
2023/08/23 11:35:09;;;;;;;3.90;1.60;;;;;;;26.89;34.42;100288.93;1685059;85;21480;-64
2023/08/23 11:37:37;;;;;;;4.83;1.30;;;;;;;26.89;34.00;100286.69;1685185;85;21126;-64
2023/08/23 11:40:10;;;;;;;3.55;1.60;;;;;;;26.88;34.00;100284.45;1634404;85;21047;-64